sensor_id;sensor_type;location;lat;lon;timestamp;P1;durP1;ratioP1;P2;durP2;ratioP2
55641;SDS011;41509;53.108;6.100;2024-01-06T00:00:11;12.07;;;6.05;;
55641;SDS011;41509;53.108;6.100;2024-01-06T00:02:37;11.88;;;6.88;;
55641;SDS011;41509;53.108;6.100;2024-01-06T00:05:06;9.82;;;5.60;;
55641;SDS011;41509;53.108;6.100;2024-01-06T00:07:32;13.00;;;6.50;;
55641;SDS011;41509;53.108;6.100;2024-01-06T00:10:01;10.18;;;5.80;;
55641;SDS011;41509;53.108;6.100;2024-01-06T00:12:36;11.15;;;5.85;;
55641;SDS011;41509;53.108;6.100;2024-01-06T00:15:03;9.88;;;5.65;;
55641;SDS011;41509;53.108;6.100;2024-01-06T00:17:29;9.55;;;5.70;;
55641;SDS011;41509;53.108;6.100;2024-01-06T00:19:54;10.07;;;5.40;;
55641;SDS011;41509;53.108;6.100;2024-01-06T00:22:20;10.07;;;5.07;;
55641;SDS011;41509;53.108;6.100;2024-01-06T00:24:46;10.07;;;5.60;;
55641;SDS011;41509;53.108;6.100;2024-01-06T00:27:11;9.37;;;5.00;;
55641;SDS011;41509;53.108;6.100;2024-01-06T00:29:38;10.25;;;5.75;;
55641;SDS011;41509;53.108;6.100;2024-01-06T00:32:04;9.30;;;5.27;;
55641;SDS011;41509;53.108;6.100;2024-01-06T00:34:30;8.35;;;4.97;;
55641;SDS011;41509;53.108;6.100;2024-01-06T00:36:59;9.95;;;5.05;;
55641;SDS011;41509;53.108;6.100;2024-01-06T00:39:24;9.10;;;5.27;;
55641;SDS011;41509;53.108;6.100;2024-01-06T00:41:50;9.43;;;5.73;;
55641;SDS011;41509;53.108;6.100;2024-01-06T00:44:15;8.67;;;4.97;;
55641;SDS011;41509;53.108;6.100;2024-01-06T00:46:41;11.27;;;5.57;;
55641;SDS011;41509;53.108;6.100;2024-01-06T00:49:07;9.20;;;5.20;;
55641;SDS011;41509;53.108;6.100;2024-01-06T00:51:32;10.43;;;5.40;;
55641;SDS011;41509;53.108;6.100;2024-01-06T00:53:58;9.07;;;5.07;;
55641;SDS011;41509;53.108;6.100;2024-01-06T00:56:23;9.87;;;5.20;;
55641;SDS011;41509;53.108;6.100;2024-01-06T00:58:49;8.57;;;4.83;;
55641;SDS011;41509;53.108;6.100;2024-01-06T01:01:15;9.73;;;6.03;;
55641;SDS011;41509;53.108;6.100;2024-01-06T01:03:40;10.03;;;5.47;;
55641;SDS011;41509;53.108;6.100;2024-01-06T01:06:06;10.33;;;5.63;;
55641;SDS011;41509;53.108;6.100;2024-01-06T01:08:34;10.23;;;5.53;;
55641;SDS011;41509;53.108;6.100;2024-01-06T01:11:00;10.03;;;5.50;;
55641;SDS011;41509;53.108;6.100;2024-01-06T01:13:25;9.87;;;5.93;;
55641;SDS011;41509;53.108;6.100;2024-01-06T01:15:51;12.70;;;6.03;;
55641;SDS011;41509;53.108;6.100;2024-01-06T01:18:16;10.80;;;5.83;;
55641;SDS011;41509;53.108;6.100;2024-01-06T01:20:42;10.67;;;5.93;;
55641;SDS011;41509;53.108;6.100;2024-01-06T01:23:08;13.23;;;5.63;;
55641;SDS011;41509;53.108;6.100;2024-01-06T01:25:33;15.00;;;7.53;;
55641;SDS011;41509;53.108;6.100;2024-01-06T01:27:59;13.17;;;6.83;;
55641;SDS011;41509;53.108;6.100;2024-01-06T01:30:25;11.23;;;6.43;;
55641;SDS011;41509;53.108;6.100;2024-01-06T01:32:50;9.97;;;5.60;;
55641;SDS011;41509;53.108;6.100;2024-01-06T01:35:16;14.70;;;6.27;;
55641;SDS011;41509;53.108;6.100;2024-01-06T01:37:44;11.15;;;5.60;;
55641;SDS011;41509;53.108;6.100;2024-01-06T01:40:09;12.57;;;5.70;;
55641;SDS011;41509;53.108;6.100;2024-01-06T01:42:35;10.02;;;5.20;;
55641;SDS011;41509;53.108;6.100;2024-01-06T01:45:04;11.10;;;5.43;;
55641;SDS011;41509;53.108;6.100;2024-01-06T01:47:30;11.73;;;5.95;;
55641;SDS011;41509;53.108;6.100;2024-01-06T01:49:55;12.97;;;5.47;;
55641;SDS011;41509;53.108;6.100;2024-01-06T01:52:22;9.15;;;5.03;;
55641;SDS011;41509;53.108;6.100;2024-01-06T01:54:47;10.80;;;5.20;;
55641;SDS011;41509;53.108;6.100;2024-01-06T01:57:14;11.07;;;5.53;;
55641;SDS011;41509;53.108;6.100;2024-01-06T01:59:41;10.60;;;5.32;;
55641;SDS011;41509;53.108;6.100;2024-01-06T02:02:07;7.77;;;4.80;;
55641;SDS011;41509;53.108;6.100;2024-01-06T02:04:33;9.98;;;5.22;;
55641;SDS011;41509;53.108;6.100;2024-01-06T02:06:59;11.45;;;6.13;;
55641;SDS011;41509;53.108;6.100;2024-01-06T02:09:25;9.27;;;4.90;;
55641;SDS011;41509;53.108;6.100;2024-01-06T02:11:54;11.07;;;5.32;;
55641;SDS011;41509;53.108;6.100;2024-01-06T02:14:21;12.18;;;5.63;;
55641;SDS011;41509;53.108;6.100;2024-01-06T02:16:50;10.15;;;5.47;;
55641;SDS011;41509;53.108;6.100;2024-01-06T02:19:15;12.80;;;6.00;;
55641;SDS011;41509;53.108;6.100;2024-01-06T02:21:43;9.85;;;5.20;;
55641;SDS011;41509;53.108;6.100;2024-01-06T02:24:09;12.90;;;6.05;;
55641;SDS011;41509;53.108;6.100;2024-01-06T02:26:35;12.75;;;5.95;;
55641;SDS011;41509;53.108;6.100;2024-01-06T02:29:03;9.85;;;4.85;;
55641;SDS011;41509;53.108;6.100;2024-01-06T02:31:29;9.47;;;4.83;;
55641;SDS011;41509;53.108;6.100;2024-01-06T02:33:57;12.55;;;5.38;;
55641;SDS011;41509;53.108;6.100;2024-01-06T02:36:22;11.17;;;6.07;;
55641;SDS011;41509;53.108;6.100;2024-01-06T02:38:48;10.50;;;4.90;;
55641;SDS011;41509;53.108;6.100;2024-01-06T02:41:14;11.27;;;5.60;;
55641;SDS011;41509;53.108;6.100;2024-01-06T02:43:39;10.30;;;4.83;;
55641;SDS011;41509;53.108;6.100;2024-01-06T02:46:06;8.00;;;4.73;;
55641;SDS011;41509;53.108;6.100;2024-01-06T02:48:32;8.48;;;4.78;;
55641;SDS011;41509;53.108;6.100;2024-01-06T02:50:58;10.70;;;4.77;;
55641;SDS011;41509;53.108;6.100;2024-01-06T02:53:23;10.63;;;5.43;;
55641;SDS011;41509;53.108;6.100;2024-01-06T02:55:49;11.73;;;5.77;;
55641;SDS011;41509;53.108;6.100;2024-01-06T02:58:14;10.07;;;4.97;;
55641;SDS011;41509;53.108;6.100;2024-01-06T03:00:42;10.45;;;5.22;;
55641;SDS011;41509;53.108;6.100;2024-01-06T03:03:08;9.73;;;5.40;;
55641;SDS011;41509;53.108;6.100;2024-01-06T03:05:36;11.00;;;5.85;;
55641;SDS011;41509;53.108;6.100;2024-01-06T03:08:02;10.18;;;5.35;;
55641;SDS011;41509;53.108;6.100;2024-01-06T03:12:54;11.20;;;5.18;;
55641;SDS011;41509;53.108;6.100;2024-01-06T03:15:19;10.80;;;5.83;;
55641;SDS011;41509;53.108;6.100;2024-01-06T03:17:45;11.40;;;5.73;;
55641;SDS011;41509;53.108;6.100;2024-01-06T03:20:11;11.23;;;5.63;;
55641;SDS011;41509;53.108;6.100;2024-01-06T03:22:36;9.07;;;4.80;;
55641;SDS011;41509;53.108;6.100;2024-01-06T03:25:03;12.77;;;6.07;;
55641;SDS011;41509;53.108;6.100;2024-01-06T03:27:29;11.75;;;6.57;;
55641;SDS011;41509;53.108;6.100;2024-01-06T03:29:55;11.33;;;5.83;;
55641;SDS011;41509;53.108;6.100;2024-01-06T03:32:21;10.80;;;6.03;;
55641;SDS011;41509;53.108;6.100;2024-01-06T03:34:49;10.90;;;6.30;;
55641;SDS011;41509;53.108;6.100;2024-01-06T03:37:15;10.90;;;5.90;;
55641;SDS011;41509;53.108;6.100;2024-01-06T03:39:41;11.30;;;5.97;;
55641;SDS011;41509;53.108;6.100;2024-01-06T03:42:06;14.00;;;6.23;;
55641;SDS011;41509;53.108;6.100;2024-01-06T03:44:35;12.85;;;6.45;;
55641;SDS011;41509;53.108;6.100;2024-01-06T03:47:06;11.98;;;5.75;;
55641;SDS011;41509;53.108;6.100;2024-01-06T03:49:31;9.30;;;5.67;;
55641;SDS011;41509;53.108;6.100;2024-01-06T03:51:57;17.43;;;6.33;;
55641;SDS011;41509;53.108;6.100;2024-01-06T03:54:23;10.30;;;5.70;;
55641;SDS011;41509;53.108;6.100;2024-01-06T03:56:49;11.10;;;5.87;;
55641;SDS011;41509;53.108;6.100;2024-01-06T03:59:15;10.35;;;5.80;;
55641;SDS011;41509;53.108;6.100;2024-01-06T04:01:40;9.47;;;5.30;;
55641;SDS011;41509;53.108;6.100;2024-01-06T04:04:06;12.53;;;5.30;;
55641;SDS011;41509;53.108;6.100;2024-01-06T04:06:32;8.38;;;4.78;;
55641;SDS011;41509;53.108;6.100;2024-01-06T04:08:58;9.63;;;5.10;;
55641;SDS011;41509;53.108;6.100;2024-01-06T04:11:23;9.97;;;5.63;;
55641;SDS011;41509;53.108;6.100;2024-01-06T04:13:51;9.85;;;5.25;;
55641;SDS011;41509;53.108;6.100;2024-01-06T04:16:17;9.27;;;5.23;;
55641;SDS011;41509;53.108;6.100;2024-01-06T04:18:43;12.03;;;5.43;;
55641;SDS011;41509;53.108;6.100;2024-01-06T04:21:08;11.53;;;6.03;;
55641;SDS011;41509;53.108;6.100;2024-01-06T04:23:34;13.30;;;5.47;;
55641;SDS011;41509;53.108;6.100;2024-01-06T04:25:59;11.47;;;5.57;;
55641;SDS011;41509;53.108;6.100;2024-01-06T04:28:26;9.85;;;5.15;;
55641;SDS011;41509;53.108;6.100;2024-01-06T04:30:52;12.05;;;5.65;;
55641;SDS011;41509;53.108;6.100;2024-01-06T04:33:18;12.77;;;6.03;;
55641;SDS011;41509;53.108;6.100;2024-01-06T04:35:44;11.13;;;5.50;;
55641;SDS011;41509;53.108;6.100;2024-01-06T04:38:09;12.37;;;5.60;;
55641;SDS011;41509;53.108;6.100;2024-01-06T04:40:35;7.90;;;4.83;;
55641;SDS011;41509;53.108;6.100;2024-01-06T04:43:01;11.33;;;5.27;;
55641;SDS011;41509;53.108;6.100;2024-01-06T04:45:28;9.60;;;4.97;;
55641;SDS011;41509;53.108;6.100;2024-01-06T04:47:53;14.50;;;5.73;;
55641;SDS011;41509;53.108;6.100;2024-01-06T04:50:19;11.37;;;5.37;;
55641;SDS011;41509;53.108;6.100;2024-01-06T04:52:45;10.77;;;5.93;;
55641;SDS011;41509;53.108;6.100;2024-01-06T04:55:10;13.00;;;4.80;;
55641;SDS011;41509;53.108;6.100;2024-01-06T04:57:36;9.27;;;4.87;;
55641;SDS011;41509;53.108;6.100;2024-01-06T05:00:02;11.30;;;5.47;;
55641;SDS011;41509;53.108;6.100;2024-01-06T05:02:29;12.50;;;4.90;;
55641;SDS011;41509;53.108;6.100;2024-01-06T05:04:55;9.82;;;4.80;;
55641;SDS011;41509;53.108;6.100;2024-01-06T05:07:23;11.50;;;5.03;;
55641;SDS011;41509;53.108;6.100;2024-01-06T05:09:49;10.27;;;5.03;;
55641;SDS011;41509;53.108;6.100;2024-01-06T05:12:14;15.67;;;6.47;;
55641;SDS011;41509;53.108;6.100;2024-01-06T05:14:40;10.50;;;4.43;;
55641;SDS011;41509;53.108;6.100;2024-01-06T05:17:08;10.68;;;4.88;;
55641;SDS011;41509;53.108;6.100;2024-01-06T05:19:34;8.03;;;4.70;;
55641;SDS011;41509;53.108;6.100;2024-01-06T05:22:00;10.93;;;5.40;;
55641;SDS011;41509;53.108;6.100;2024-01-06T05:24:26;13.63;;;5.30;;
55641;SDS011;41509;53.108;6.100;2024-01-06T05:26:51;11.07;;;5.40;;
55641;SDS011;41509;53.108;6.100;2024-01-06T05:29:17;7.30;;;4.70;;
55641;SDS011;41509;53.108;6.100;2024-01-06T05:31:42;9.67;;;5.00;;
55641;SDS011;41509;53.108;6.100;2024-01-06T05:34:08;12.43;;;5.10;;
55641;SDS011;41509;53.108;6.100;2024-01-06T05:36:34;9.20;;;5.27;;
55641;SDS011;41509;53.108;6.100;2024-01-06T05:38:59;9.07;;;4.63;;
55641;SDS011;41509;53.108;6.100;2024-01-06T05:41:28;10.27;;;5.03;;
55641;SDS011;41509;53.108;6.100;2024-01-06T05:43:53;10.70;;;5.03;;
55641;SDS011;41509;53.108;6.100;2024-01-06T05:46:22;10.13;;;4.70;;
55641;SDS011;41509;53.108;6.100;2024-01-06T05:48:51;7.30;;;4.32;;
55641;SDS011;41509;53.108;6.100;2024-01-06T05:51:17;9.20;;;4.60;;
55641;SDS011;41509;53.108;6.100;2024-01-06T05:53:42;9.90;;;5.03;;
55641;SDS011;41509;53.108;6.100;2024-01-06T05:56:08;10.97;;;5.00;;
55641;SDS011;41509;53.108;6.100;2024-01-06T05:58:34;8.80;;;4.78;;
55641;SDS011;41509;53.108;6.100;2024-01-06T06:01:04;10.68;;;5.47;;
55641;SDS011;41509;53.108;6.100;2024-01-06T06:03:30;10.15;;;5.55;;
55641;SDS011;41509;53.108;6.100;2024-01-06T06:05:57;10.07;;;5.25;;
55641;SDS011;41509;53.108;6.100;2024-01-06T06:08:22;9.30;;;4.93;;
55641;SDS011;41509;53.108;6.100;2024-01-06T06:10:48;10.37;;;5.57;;
55641;SDS011;41509;53.108;6.100;2024-01-06T06:13:26;9.35;;;5.00;;
55641;SDS011;41509;53.108;6.100;2024-01-06T06:15:52;8.80;;;4.60;;
55641;SDS011;41509;53.108;6.100;2024-01-06T06:18:18;10.43;;;5.77;;
55641;SDS011;41509;53.108;6.100;2024-01-06T06:20:46;8.33;;;4.83;;
55641;SDS011;41509;53.108;6.100;2024-01-06T06:23:14;14.20;;;5.45;;
55641;SDS011;41509;53.108;6.100;2024-01-06T06:25:40;12.07;;;5.57;;
55641;SDS011;41509;53.108;6.100;2024-01-06T06:28:05;9.97;;;5.17;;
55641;SDS011;41509;53.108;6.100;2024-01-06T06:30:31;13.47;;;5.60;;
55641;SDS011;41509;53.108;6.100;2024-01-06T06:32:57;8.15;;;5.57;;
55641;SDS011;41509;53.108;6.100;2024-01-06T06:35:23;14.07;;;5.87;;
55641;SDS011;41509;53.108;6.100;2024-01-06T06:37:49;10.23;;;5.25;;
55641;SDS011;41509;53.108;6.100;2024-01-06T06:40:15;8.17;;;4.90;;
55641;SDS011;41509;53.108;6.100;2024-01-06T06:42:41;11.00;;;5.22;;
55641;SDS011;41509;53.108;6.100;2024-01-06T06:45:07;10.20;;;5.27;;
55641;SDS011;41509;53.108;6.100;2024-01-06T06:47:33;11.68;;;5.82;;
55641;SDS011;41509;53.108;6.100;2024-01-06T06:49:58;13.27;;;5.33;;
55641;SDS011;41509;53.108;6.100;2024-01-06T06:52:27;10.85;;;5.80;;
55641;SDS011;41509;53.108;6.100;2024-01-06T06:54:53;9.23;;;5.30;;
55641;SDS011;41509;53.108;6.100;2024-01-06T06:57:19;11.90;;;5.73;;
55641;SDS011;41509;53.108;6.100;2024-01-06T06:59:48;13.68;;;5.65;;
55641;SDS011;41509;53.108;6.100;2024-01-06T07:02:21;8.55;;;5.03;;
55641;SDS011;41509;53.108;6.100;2024-01-06T07:04:48;13.10;;;5.60;;
55641;SDS011;41509;53.108;6.100;2024-01-06T07:07:16;10.05;;;5.65;;
55641;SDS011;41509;53.108;6.100;2024-01-06T07:09:42;13.97;;;6.00;;
55641;SDS011;41509;53.108;6.100;2024-01-06T07:12:10;12.23;;;6.22;;
55641;SDS011;41509;53.108;6.100;2024-01-06T07:14:36;10.63;;;5.60;;
55641;SDS011;41509;53.108;6.100;2024-01-06T07:17:02;11.05;;;5.97;;
55641;SDS011;41509;53.108;6.100;2024-01-06T07:19:31;10.80;;;5.47;;
55641;SDS011;41509;53.108;6.100;2024-01-06T07:22:00;10.80;;;6.20;;
55641;SDS011;41509;53.108;6.100;2024-01-06T07:24:25;10.87;;;5.37;;
55641;SDS011;41509;53.108;6.100;2024-01-06T07:26:52;15.25;;;5.88;;
55641;SDS011;41509;53.108;6.100;2024-01-06T07:29:23;11.85;;;6.40;;
55641;SDS011;41509;53.108;6.100;2024-01-06T07:31:49;11.48;;;6.53;;
55641;SDS011;41509;53.108;6.100;2024-01-06T07:34:15;10.97;;;5.27;;
55641;SDS011;41509;53.108;6.100;2024-01-06T07:36:41;10.63;;;5.18;;
55641;SDS011;41509;53.108;6.100;2024-01-06T07:39:06;12.83;;;6.13;;
55641;SDS011;41509;53.108;6.100;2024-01-06T07:41:35;13.03;;;6.17;;
55641;SDS011;41509;53.108;6.100;2024-01-06T07:44:01;8.65;;;5.45;;
55641;SDS011;41509;53.108;6.100;2024-01-06T07:48:53;11.73;;;6.30;;
55641;SDS011;41509;53.108;6.100;2024-01-06T07:51:19;10.83;;;5.17;;
55641;SDS011;41509;53.108;6.100;2024-01-06T07:53:45;11.67;;;6.93;;
55641;SDS011;41509;53.108;6.100;2024-01-06T07:56:11;11.57;;;6.20;;
55641;SDS011;41509;53.108;6.100;2024-01-06T07:58:36;11.17;;;5.70;;
55641;SDS011;41509;53.108;6.100;2024-01-06T08:01:02;14.77;;;6.10;;
55641;SDS011;41509;53.108;6.100;2024-01-06T08:03:28;11.77;;;5.60;;
55641;SDS011;41509;53.108;6.100;2024-01-06T08:05:53;9.07;;;4.90;;
55641;SDS011;41509;53.108;6.100;2024-01-06T08:08:19;14.07;;;6.10;;
55641;SDS011;41509;53.108;6.100;2024-01-06T08:10:46;10.37;;;5.40;;
55641;SDS011;41509;53.108;6.100;2024-01-06T08:13:12;10.30;;;5.68;;
55641;SDS011;41509;53.108;6.100;2024-01-06T08:15:38;10.27;;;5.57;;
55641;SDS011;41509;53.108;6.100;2024-01-06T08:18:06;8.73;;;5.37;;
55641;SDS011;41509;53.108;6.100;2024-01-06T08:20:34;16.17;;;5.63;;
55641;SDS011;41509;53.108;6.100;2024-01-06T08:23:00;12.77;;;5.87;;
55641;SDS011;41509;53.108;6.100;2024-01-06T08:25:25;10.27;;;5.40;;
55641;SDS011;41509;53.108;6.100;2024-01-06T08:27:51;10.27;;;5.37;;
55641;SDS011;41509;53.108;6.100;2024-01-06T08:30:16;13.90;;;6.47;;
55641;SDS011;41509;53.108;6.100;2024-01-06T08:32:42;9.87;;;6.10;;
55641;SDS011;41509;53.108;6.100;2024-01-06T08:35:09;14.20;;;5.30;;
55641;SDS011;41509;53.108;6.100;2024-01-06T08:37:34;10.30;;;6.53;;
55641;SDS011;41509;53.108;6.100;2024-01-06T08:40:00;11.53;;;5.77;;
55641;SDS011;41509;53.108;6.100;2024-01-06T08:42:26;16.83;;;6.50;;
55641;SDS011;41509;53.108;6.100;2024-01-06T08:44:52;10.43;;;6.43;;
55641;SDS011;41509;53.108;6.100;2024-01-06T08:47:17;11.00;;;6.50;;
55641;SDS011;41509;53.108;6.100;2024-01-06T08:49:43;12.10;;;6.28;;
55641;SDS011;41509;53.108;6.100;2024-01-06T08:52:09;12.33;;;6.20;;
55641;SDS011;41509;53.108;6.100;2024-01-06T08:54:34;13.17;;;6.73;;
55641;SDS011;41509;53.108;6.100;2024-01-06T08:57:00;13.27;;;7.23;;
55641;SDS011;41509;53.108;6.100;2024-01-06T08:59:26;10.30;;;6.07;;
55641;SDS011;41509;53.108;6.100;2024-01-06T09:01:51;14.70;;;6.80;;
55641;SDS011;41509;53.108;6.100;2024-01-06T09:04:17;10.60;;;5.93;;
55641;SDS011;41509;53.108;6.100;2024-01-06T09:06:48;12.68;;;6.45;;
55641;SDS011;41509;53.108;6.100;2024-01-06T09:09:15;13.30;;;6.80;;
55641;SDS011;41509;53.108;6.100;2024-01-06T09:11:41;11.30;;;6.43;;
55641;SDS011;41509;53.108;6.100;2024-01-06T09:14:11;16.40;;;7.32;;
55641;SDS011;41509;53.108;6.100;2024-01-06T09:16:37;12.03;;;6.77;;
55641;SDS011;41509;53.108;6.100;2024-01-06T09:19:05;17.15;;;6.78;;
55641;SDS011;41509;53.108;6.100;2024-01-06T09:21:31;9.60;;;6.13;;
55641;SDS011;41509;53.108;6.100;2024-01-06T09:23:56;12.37;;;6.57;;
55641;SDS011;41509;53.108;6.100;2024-01-06T09:26:22;11.07;;;7.10;;
55641;SDS011;41509;53.108;6.100;2024-01-06T09:28:48;11.70;;;5.77;;
55641;SDS011;41509;53.108;6.100;2024-01-06T09:31:13;12.27;;;6.37;;
55641;SDS011;41509;53.108;6.100;2024-01-06T09:33:39;13.50;;;5.67;;
55641;SDS011;41509;53.108;6.100;2024-01-06T09:36:05;15.60;;;6.70;;
55641;SDS011;41509;53.108;6.100;2024-01-06T09:38:30;15.17;;;6.27;;
55641;SDS011;41509;53.108;6.100;2024-01-06T09:40:56;14.60;;;7.60;;
55641;SDS011;41509;53.108;6.100;2024-01-06T09:43:23;12.95;;;6.45;;
55641;SDS011;41509;53.108;6.100;2024-01-06T09:45:53;11.63;;;6.47;;
55641;SDS011;41509;53.108;6.100;2024-01-06T09:48:28;13.13;;;6.28;;
55641;SDS011;41509;53.108;6.100;2024-01-06T09:50:58;10.98;;;5.68;;
55641;SDS011;41509;53.108;6.100;2024-01-06T09:53:33;12.60;;;6.95;;
55641;SDS011;41509;53.108;6.100;2024-01-06T09:56:01;11.55;;;6.32;;
55641;SDS011;41509;53.108;6.100;2024-01-06T09:58:28;15.75;;;7.10;;
55641;SDS011;41509;53.108;6.100;2024-01-06T10:00:58;22.55;;;7.57;;
55641;SDS011;41509;53.108;6.100;2024-01-06T10:03:25;15.00;;;6.93;;
55641;SDS011;41509;53.108;6.100;2024-01-06T10:08:18;9.07;;;5.22;;
55641;SDS011;41509;53.108;6.100;2024-01-06T10:10:49;14.57;;;5.65;;
55641;SDS011;41509;53.108;6.100;2024-01-06T10:13:16;16.00;;;6.35;;
55641;SDS011;41509;53.108;6.100;2024-01-06T10:15:46;10.60;;;5.95;;
55641;SDS011;41509;53.108;6.100;2024-01-06T10:18:14;10.83;;;5.97;;
55641;SDS011;41509;53.108;6.100;2024-01-06T10:20:40;12.70;;;6.57;;
55641;SDS011;41509;53.108;6.100;2024-01-06T10:23:06;10.73;;;6.00;;
55641;SDS011;41509;53.108;6.100;2024-01-06T10:25:35;15.03;;;6.73;;
55641;SDS011;41509;53.108;6.100;2024-01-06T10:28:01;11.63;;;6.95;;
55641;SDS011;41509;53.108;6.100;2024-01-06T10:30:28;13.23;;;6.88;;
55641;SDS011;41509;53.108;6.100;2024-01-06T10:32:57;12.63;;;6.87;;
55641;SDS011;41509;53.108;6.100;2024-01-06T10:35:24;13.25;;;6.53;;
55641;SDS011;41509;53.108;6.100;2024-01-06T10:37:51;13.50;;;7.13;;
55641;SDS011;41509;53.108;6.100;2024-01-06T10:40:17;12.45;;;6.55;;
55641;SDS011;41509;53.108;6.100;2024-01-06T10:42:43;16.00;;;6.73;;
55641;SDS011;41509;53.108;6.100;2024-01-06T10:47:36;12.07;;;5.95;;
55641;SDS011;41509;53.108;6.100;2024-01-06T10:50:03;16.45;;;7.10;;
55641;SDS011;41509;53.108;6.100;2024-01-06T10:52:31;11.68;;;6.25;;
55641;SDS011;41509;53.108;6.100;2024-01-06T10:54:57;12.17;;;6.37;;
55641;SDS011;41509;53.108;6.100;2024-01-06T10:57:23;11.63;;;6.55;;
55641;SDS011;41509;53.108;6.100;2024-01-06T10:59:50;10.93;;;5.90;;
55641;SDS011;41509;53.108;6.100;2024-01-06T11:02:16;12.98;;;6.32;;
55641;SDS011;41509;53.108;6.100;2024-01-06T11:04:46;12.30;;;6.00;;
55641;SDS011;41509;53.108;6.100;2024-01-06T11:07:19;12.73;;;6.40;;
55641;SDS011;41509;53.108;6.100;2024-01-06T11:09:50;14.52;;;6.78;;
55641;SDS011;41509;53.108;6.100;2024-01-06T11:12:22;15.75;;;6.20;;
55641;SDS011;41509;53.108;6.100;2024-01-06T11:14:48;12.90;;;6.60;;
55641;SDS011;41509;53.108;6.100;2024-01-06T11:17:28;11.80;;;6.00;;
55641;SDS011;41509;53.108;6.100;2024-01-06T11:20:18;10.13;;;5.85;;
55641;SDS011;41509;53.108;6.100;2024-01-06T11:22:46;10.95;;;5.55;;
55641;SDS011;41509;53.108;6.100;2024-01-06T11:25:13;8.90;;;5.03;;
55641;SDS011;41509;53.108;6.100;2024-01-06T11:27:41;9.70;;;4.85;;
55641;SDS011;41509;53.108;6.100;2024-01-06T11:30:18;11.63;;;5.55;;
55641;SDS011;41509;53.108;6.100;2024-01-06T11:32:48;7.80;;;4.63;;
55641;SDS011;41509;53.108;6.100;2024-01-06T11:35:15;10.20;;;5.75;;
55641;SDS011;41509;53.108;6.100;2024-01-06T11:40:09;9.80;;;4.87;;
55641;SDS011;41509;53.108;6.100;2024-01-06T11:42:40;8.25;;;4.45;;
55641;SDS011;41509;53.108;6.100;2024-01-06T11:45:07;11.52;;;5.85;;
55641;SDS011;41509;53.108;6.100;2024-01-06T11:47:33;12.95;;;6.63;;
55641;SDS011;41509;53.108;6.100;2024-01-06T11:50:00;10.30;;;5.03;;
55641;SDS011;41509;53.108;6.100;2024-01-06T11:52:30;9.13;;;4.40;;
55641;SDS011;41509;53.108;6.100;2024-01-06T11:54:57;10.35;;;4.63;;
55641;SDS011;41509;53.108;6.100;2024-01-06T11:57:25;8.13;;;4.82;;
55641;SDS011;41509;53.108;6.100;2024-01-06T11:59:51;8.63;;;4.85;;
55641;SDS011;41509;53.108;6.100;2024-01-06T12:02:17;8.63;;;4.07;;
55641;SDS011;41509;53.108;6.100;2024-01-06T12:04:47;10.32;;;5.13;;
55641;SDS011;41509;53.108;6.100;2024-01-06T12:07:17;8.75;;;4.65;;
55641;SDS011;41509;53.108;6.100;2024-01-06T12:09:45;9.40;;;4.32;;
55641;SDS011;41509;53.108;6.100;2024-01-06T12:12:12;9.05;;;4.90;;
55641;SDS011;41509;53.108;6.100;2024-01-06T12:14:41;11.60;;;5.00;;
55641;SDS011;41509;53.108;6.100;2024-01-06T12:17:11;9.00;;;4.43;;
55641;SDS011;41509;53.108;6.100;2024-01-06T12:19:39;7.68;;;4.60;;
55641;SDS011;41509;53.108;6.100;2024-01-06T12:22:11;8.73;;;4.47;;
55641;SDS011;41509;53.108;6.100;2024-01-06T12:24:41;8.77;;;5.20;;
55641;SDS011;41509;53.108;6.100;2024-01-06T12:27:10;8.52;;;4.53;;
55641;SDS011;41509;53.108;6.100;2024-01-06T12:29:42;9.40;;;5.30;;
55641;SDS011;41509;53.108;6.100;2024-01-06T12:32:09;8.02;;;4.70;;
55641;SDS011;41509;53.108;6.100;2024-01-06T12:34:35;7.60;;;4.38;;
55641;SDS011;41509;53.108;6.100;2024-01-06T12:37:01;8.65;;;5.10;;
55641;SDS011;41509;53.108;6.100;2024-01-06T12:39:30;7.65;;;4.45;;
55641;SDS011;41509;53.108;6.100;2024-01-06T12:41:58;9.55;;;4.63;;
55641;SDS011;41509;53.108;6.100;2024-01-06T12:44:26;7.68;;;4.78;;
55641;SDS011;41509;53.108;6.100;2024-01-06T12:46:53;8.63;;;4.60;;
55641;SDS011;41509;53.108;6.100;2024-01-06T12:49:19;8.52;;;4.88;;
55641;SDS011;41509;53.108;6.100;2024-01-06T12:51:44;7.53;;;4.40;;
55641;SDS011;41509;53.108;6.100;2024-01-06T12:54:10;10.67;;;5.20;;
55641;SDS011;41509;53.108;6.100;2024-01-06T12:56:36;10.17;;;5.23;;
55641;SDS011;41509;53.108;6.100;2024-01-06T12:59:01;8.47;;;4.67;;
55641;SDS011;41509;53.108;6.100;2024-01-06T13:01:27;8.40;;;4.83;;
55641;SDS011;41509;53.108;6.100;2024-01-06T13:03:53;9.80;;;5.40;;
55641;SDS011;41509;53.108;6.100;2024-01-06T13:06:19;8.70;;;5.18;;
55641;SDS011;41509;53.108;6.100;2024-01-06T13:08:45;9.07;;;5.18;;
55641;SDS011;41509;53.108;6.100;2024-01-06T13:11:12;11.40;;;5.75;;
55641;SDS011;41509;53.108;6.100;2024-01-06T13:13:38;9.03;;;5.17;;
55641;SDS011;41509;53.108;6.100;2024-01-06T13:16:03;10.53;;;5.80;;
55641;SDS011;41509;53.108;6.100;2024-01-06T13:18:30;8.27;;;5.63;;
55641;SDS011;41509;53.108;6.100;2024-01-06T13:20:56;10.80;;;5.90;;
55641;SDS011;41509;53.108;6.100;2024-01-06T13:23:24;9.02;;;5.68;;
55641;SDS011;41509;53.108;6.100;2024-01-06T13:25:50;7.43;;;5.00;;
55641;SDS011;41509;53.108;6.100;2024-01-06T13:28:15;10.93;;;6.23;;
55641;SDS011;41509;53.108;6.100;2024-01-06T13:30:42;12.32;;;6.68;;
55641;SDS011;41509;53.108;6.100;2024-01-06T13:33:07;10.33;;;5.53;;
55641;SDS011;41509;53.108;6.100;2024-01-06T13:35:35;10.48;;;6.70;;
55641;SDS011;41509;53.108;6.100;2024-01-06T13:40:29;13.82;;;5.38;;
55641;SDS011;41509;53.108;6.100;2024-01-06T13:42:55;10.60;;;5.68;;
55641;SDS011;41509;53.108;6.100;2024-01-06T13:45:21;9.85;;;5.80;;
55641;SDS011;41509;53.108;6.100;2024-01-06T13:47:47;10.25;;;5.05;;
55641;SDS011;41509;53.108;6.100;2024-01-06T13:50:14;8.37;;;5.27;;
55641;SDS011;41509;53.108;6.100;2024-01-06T13:52:42;9.50;;;5.28;;
55641;SDS011;41509;53.108;6.100;2024-01-06T13:55:08;11.98;;;6.05;;
55641;SDS011;41509;53.108;6.100;2024-01-06T13:57:34;9.67;;;5.93;;
55641;SDS011;41509;53.108;6.100;2024-01-06T14:00:00;8.57;;;4.90;;
55641;SDS011;41509;53.108;6.100;2024-01-06T14:02:26;10.60;;;5.38;;
55641;SDS011;41509;53.108;6.100;2024-01-06T14:04:52;9.45;;;5.55;;
55641;SDS011;41509;53.108;6.100;2024-01-06T14:07:18;8.27;;;4.90;;
55641;SDS011;41509;53.108;6.100;2024-01-06T14:09:44;8.23;;;4.95;;
55641;SDS011;41509;53.108;6.100;2024-01-06T14:12:10;9.30;;;5.10;;
55641;SDS011;41509;53.108;6.100;2024-01-06T14:14:36;7.60;;;4.33;;
55641;SDS011;41509;53.108;6.100;2024-01-06T14:17:02;8.37;;;4.70;;
55641;SDS011;41509;53.108;6.100;2024-01-06T14:19:35;9.38;;;5.07;;
55641;SDS011;41509;53.108;6.100;2024-01-06T14:22:01;9.80;;;5.10;;
55641;SDS011;41509;53.108;6.100;2024-01-06T14:24:29;7.80;;;4.43;;
55641;SDS011;41509;53.108;6.100;2024-01-06T14:26:55;8.77;;;4.43;;
55641;SDS011;41509;53.108;6.100;2024-01-06T14:29:21;7.88;;;4.63;;
55641;SDS011;41509;53.108;6.100;2024-01-06T14:31:47;9.13;;;4.20;;
55641;SDS011;41509;53.108;6.100;2024-01-06T14:34:13;7.80;;;4.57;;
55641;SDS011;41509;53.108;6.100;2024-01-06T14:36:39;8.02;;;4.22;;
55641;SDS011;41509;53.108;6.100;2024-01-06T14:39:13;7.85;;;4.47;;
55641;SDS011;41509;53.108;6.100;2024-01-06T14:41:39;9.02;;;5.30;;
55641;SDS011;41509;53.108;6.100;2024-01-06T14:44:06;8.45;;;4.68;;
55641;SDS011;41509;53.108;6.100;2024-01-06T14:46:32;9.88;;;4.75;;
55641;SDS011;41509;53.108;6.100;2024-01-06T14:48:59;9.65;;;4.80;;